KOLF/OLF METAR and TAF weather

Enter ICAO airport designator
Station Type Date Time Source
KOLF METAR 2020/04/05 16:53 UTC NOAA

KOLF 051653Z AUTO 08015G21KT 10SM CLR 03/M03 A2986 RMK AO2 SLP133 T00281028


Station Type Date Time Source
KOLF Decoded METAR 2020/04/05 16:53 UTC NOAA

WOLF POINT CLAYTON AIRPORT, MT, United States (KOLF) 48-06N 105-35W 604M
Apr 05, 2020 - 12:53 PM EDT / 2020.04.05 1653 UTC
Wind: from the E (080 degrees) at 17 MPH (15 KT) gusting to 24 MPH (21 KT):0
Visibility: 10 mile(s):0
Sky conditions: clear
Temperature: 37.0 F (2.8 C)
Dew Point: 27.0 F (-2.8 C)
Relative Humidity: 66%
Pressure (altimeter): 29.86 in. Hg (1011 hPa)
ob: KOLF 051653Z AUTO 08015G21KT 10SM CLR 03/M03 A2986 RMK AO2 SLP133 T00281028
cycle: 17

Station Type Date Time Source
KOLF TAF 2020/04/05 16:33 UTC NOAA

TAF
AMD KOLF 051531Z 0516/0612 09014G20KT P6SM BKN090
FM060000 09008KT P6SM BKN120

Example: see airport list